Time;durP1;ratioP1;P1;durP2;ratioP2;P2;SDS_P1;SDS_P2;PMS_P1;PMS_P2;Temp;Humidity;BMP_temperature;BMP_pressure;BME280_temperature;BME280_humidity;BME280_pressure;Samples;Min_cycle;Max_cycle;Signal;HPM_P1;HPM_P2
2023/12/07 05:32:33;;;;;;;7.47;2.97;;;;;;;1.81;100.00;101332.38;5723282;25;20252;-79
2023/12/07 06:03:09;;;;;;;4.95;4.22;;;;;;;1.91;100.00;101341.25;6025877;23;20228;-79
2023/12/07 08:20:26;;;;;;;5.35;2.72;;;;;;;2.35;100.00;101432.59;5876514;24;20201;-78
2023/12/07 12:06:32;;;;;;;14.63;5.90;;;;;;;2.70;100.00;101443.66;5884754;24;20267;-82
2023/12/07 13:04:58;;;;;;;10.25;6.50;;;;;;;2.92;100.00;101438.03;5830983;24;20271;-79
2023/12/07 14:08:57;;;;;;;17.92;8.93;;;;;;;2.89;100.00;101445.50;6098936;23;20543;-81
2023/12/07 14:25:34;;;;;;;17.15;7.50;;;;;;;2.50;100.00;101455.28;6176497;23;20165;-79
2023/12/07 15:30:45;;;;;;;21.17;9.35;;;;;;;2.71;100.00;101457.88;5989977;24;20180;-80
2023/12/07 15:43:05;;;;;;;14.00;8.57;;;;;;;2.75;100.00;101451.25;5982819;24;20564;-81
2023/12/07 15:47:18;;;;;;;12.82;6.85;;;;;;;2.92;100.00;101456.75;5902681;24;20204;-79
2023/12/07 16:37:51;;;;;;;19.05;11.23;;;;;;;2.82;100.00;101442.53;6038686;23;20583;-80
2023/12/07 17:44:48;;;;;;;8.80;4.80;;;;;;;2.78;100.00;101483.91;5992350;24;20220;-80
2023/12/07 17:49:29;;;;;;;8.88;4.30;;;;;;;2.66;100.00;101495.69;5961725;24;20299;-80
2023/12/07 18:02:28;;;;;;;15.60;6.63;;;;;;;2.44;100.00;101461.16;5991139;24;20691;-80
2023/12/07 18:38:51;;;;;;;6.82;3.75;;;;;;;2.93;100.00;101474.50;5806803;24;20187;-79
2023/12/07 19:37:08;;;;;;;14.48;7.65;;;;;;;2.88;100.00;101415.25;6065183;23;20152;-81
2023/12/07 19:40:27;;;;;;;14.07;8.02;;;;;;;2.88;100.00;101409.06;6004022;23;20176;-78
2023/12/07 19:43:01;;;;;;;14.70;6.57;;;;;;;2.85;100.00;101396.00;6037243;23;20255;-79
2023/12/07 19:45:31;;;;;;;16.58;8.02;;;;;;;2.91;100.00;101404.28;6059968;23;20163;-79
2023/12/07 19:48:00;;;;;;;14.77;5.80;;;;;;;2.99;100.00;101399.09;6092121;23;20177;-80
2023/12/07 19:50:31;;;;;;;16.88;7.22;;;;;;;2.90;100.00;101404.44;6179025;23;20196;-79
2023/12/07 19:53:03;;;;;;;17.88;8.80;;;;;;;2.91;100.00;101401.59;6205963;23;20253;-81
2023/12/07 19:55:33;;;;;;;8.13;5.18;;;;;;;2.88;100.00;101396.53;6208594;23;20169;-80
2023/12/07 19:58:04;;;;;;;15.32;7.97;;;;;;;3.15;100.00;101395.00;6205699;23;20146;-79
2023/12/07 20:00:35;;;;;;;12.50;5.45;;;;;;;3.05;100.00;101393.16;6203768;23;20153;-80
2023/12/07 20:03:04;;;;;;;9.38;6.35;;;;;;;3.06;100.00;101389.50;6201587;23;20264;-79
2023/12/07 20:05:39;;;;;;;8.52;5.82;;;;;;;2.95;100.00;101386.16;6199012;23;20162;-80
2023/12/07 20:08:16;;;;;;;14.68;7.07;;;;;;;3.06;100.00;101378.81;6199887;23;20165;-80
2023/12/07 20:10:47;;;;;;;14.35;10.20;;;;;;;3.05;100.00;101382.44;6196698;23;20280;-80
2023/12/07 20:13:16;;;;;;;12.10;9.30;;;;;;;3.03;100.00;101371.06;6172008;23;20197;-80
2023/12/07 20:20:07;;;;;;;13.23;8.50;;;;;;;2.96;100.00;101356.56;6038139;23;20200;-81
2023/12/07 20:29:42;;;;;;;10.52;6.18;;;;;;;2.97;100.00;101352.91;6162297;23;20169;-82
2023/12/07 20:38:29;;;;;;;14.52;9.15;;;;;;;2.82;100.00;101359.66;6073193;23;20163;-81
2023/12/07 20:42:29;;;;;;;16.65;8.68;;;;;;;2.82;100.00;101354.31;6113235;23;20193;-80
2023/12/07 20:44:59;;;;;;;10.85;7.45;;;;;;;2.84;100.00;101364.88;6193958;23;20204;-81
2023/12/07 20:48:04;;;;;;;23.98;11.77;;;;;;;2.83;100.00;101369.38;6198164;23;20196;-80
2023/12/07 20:50:36;;;;;;;17.08;7.72;;;;;;;2.80;100.00;101361.66;6204664;23;20193;-80
2023/12/07 20:53:05;;;;;;;16.60;8.35;;;;;;;2.82;100.00;101361.50;6180251;23;20189;-80
2023/12/07 20:55:42;;;;;;;25.42;9.85;;;;;;;2.77;100.00;101356.56;6171784;23;20161;-79
2023/12/07 21:13:53;;;;;;;8.50;5.68;;;;;;;2.42;100.00;101338.41;6188996;23;20219;-78
2023/12/07 21:16:31;;;;;;;12.98;6.80;;;;;;;2.44;100.00;101339.13;6194794;23;20154;-79
2023/12/07 21:19:00;;;;;;;13.68;7.30;;;;;;;2.38;100.00;101342.34;6193449;23;20189;-80
2023/12/07 21:21:40;;;;;;;8.07;4.35;;;;;;;2.34;100.00;101337.41;6167591;23;20185;-79
2023/12/07 21:24:13;;;;;;;16.88;6.53;;;;;;;2.28;100.00;101337.97;6196234;23;20513;-80
2023/12/07 21:26:57;;;;;;;13.57;7.72;;;;;;;2.28;100.00;101343.31;6173403;23;20265;-78
2023/12/07 21:29:47;;;;;;;18.25;8.27;;;;;;;2.53;100.00;101345.44;6172834;23;20177;-79
2023/12/07 21:32:28;;;;;;;12.52;8.55;;;;;;;2.52;100.00;101341.94;6200272;23;20192;-79
2023/12/07 21:35:21;;;;;;;10.90;6.30;;;;;;;2.62;100.00;101336.59;6194880;23;20150;-79
2023/12/07 21:38:18;;;;;;;8.20;6.20;;;;;;;2.63;100.00;101331.13;6193243;23;20196;-80
2023/12/07 21:40:51;;;;;;;12.30;5.57;;;;;;;2.65;100.00;101330.16;6187871;23;20169;-79
2023/12/07 21:43:31;;;;;;;15.98;8.13;;;;;;;2.68;100.00;101333.38;6195415;23;20196;-82
2023/12/07 21:46:17;;;;;;;16.67;9.10;;;;;;;2.71;100.00;101321.56;6194890;23;20494;-80
2023/12/07 21:49:00;;;;;;;17.90;7.22;;;;;;;2.58;100.00;101324.50;6194113;23;20185;-80
2023/12/07 21:51:52;;;;;;;15.23;9.13;;;;;;;2.53;100.00;101329.44;6166292;23;20205;-81
2023/12/07 21:58:16;;;;;;;10.98;8.77;;;;;;;2.54;100.00;101329.28;6108496;23;20167;-80
2023/12/07 22:01:15;;;;;;;8.60;7.72;;;;;;;2.52;100.00;101325.91;6111855;23;20223;-79
2023/12/07 22:04:44;;;;;;;10.00;8.35;;;;;;;2.59;100.00;101334.22;6113201;23;20159;-79
2023/12/07 23:10:04;;;;;;;12.23;6.57;;;;;;;2.04;100.00;101298.28;5823765;24;20223;-81
2023/12/07 23:12:36;;;;;;;12.75;8.52;;;;;;;2.02;100.00;101292.25;5888471;24;20247;-79
2023/12/07 23:15:11;;;;;;;23.33;7.70;;;;;;;1.98;100.00;101289.03;5953882;24;20210;-81
2023/12/07 23:17:41;;;;;;;9.93;4.18;;;;;;;2.06;100.00;101286.50;5987750;24;20162;-81
2023/12/07 23:20:16;;;;;;;11.20;5.15;;;;;;;2.00;100.00;101275.53;5987335;24;20171;-80
2023/12/07 23:22:50;;;;;;;9.13;6.07;;;;;;;2.18;100.00;101280.06;5988193;23;20198;-80
2023/12/07 23:25:23;;;;;;;7.45;5.72;;;;;;;2.04;100.00;101276.94;5988750;24;20628;-80
2023/12/07 23:27:54;;;;;;;17.30;8.15;;;;;;;2.11;100.00;101273.59;5988268;24;20218;-80
2023/12/07 23:30:26;;;;;;;11.05;5.90;;;;;;;2.12;100.00;101269.94;5988784;23;20182;-80
2023/12/07 23:32:56;;;;;;;11.63;5.82;;;;;;;2.05;100.00;101268.78;5988162;23;20220;-80
2023/12/07 23:35:29;;;;;;;8.95;4.93;;;;;;;2.08;100.00;101268.50;5987919;24;20532;-79
2023/12/07 23:38:03;;;;;;;13.02;6.05;;;;;;;2.05;100.00;101259.94;5989684;24;20671;-79
2023/12/07 23:40:35;;;;;;;14.63;7.65;;;;;;;2.01;100.00;101248.72;5996126;24;20170;-79
2023/12/07 23:43:07;;;;;;;22.08;8.30;;;;;;;1.97;100.00;101244.63;6018241;23;20189;-79
2023/12/07 23:45:37;;;;;;;6.97;5.65;;;;;;;2.02;100.00;101233.53;6023907;23;20201;-79
2023/12/07 23:48:09;;;;;;;10.00;6.25;;;;;;;2.03;100.00;101238.72;6189591;23;20224;-80
